Time;durP1;ratioP1;P1;durP2;ratioP2;P2;SDS_P1;SDS_P2;PMS_P1;PMS_P2;Temp;Humidity;BMP_temperature;BMP_pressure;BME280_temperature;BME280_humidity;BME280_pressure;Samples;Min_cycle;Max_cycle;Signal;HPM_P1;HPM_P2
2022/08/23 04:01:59;;;;;;;4.93;4.43;;;16.70;99.90;;;;;;5309914;23;20495;-75
2022/08/23 04:04:27;;;;;;;4.43;4.03;;;16.70;99.90;;;;;;4992341;28;20486;-75
2022/08/23 04:06:55;;;;;;;5.87;4.67;;;16.70;99.90;;;;;;4992179;28;20494;-75
2022/08/23 04:09:22;;;;;;;7.63;4.20;;;16.70;99.90;;;;;;4992608;28;20460;-75
2022/08/23 04:11:50;;;;;;;7.33;4.70;;;16.60;99.90;;;;;;4992494;28;20479;-75
2022/08/23 04:14:17;;;;;;;4.37;4.03;;;16.60;99.90;;;;;;4992427;28;20460;-75
2022/08/23 04:16:43;;;;;;;5.80;4.73;;;16.60;99.90;;;;;;4993184;28;20448;-75
2022/08/23 04:19:14;;;;;;;4.37;3.97;;;16.60;99.90;;;;;;4992294;28;20456;-75
2022/08/23 04:21:44;;;;;;;4.53;4.13;;;16.60;99.90;;;;;;4992577;28;20477;-75
2022/08/23 04:24:11;;;;;;;5.00;4.47;;;16.60;99.90;;;;;;4992316;28;20462;-75
2022/08/23 04:26:39;;;;;;;6.07;4.93;;;16.60;99.90;;;;;;4992365;28;20656;-75
2022/08/23 04:29:06;;;;;;;5.00;4.50;;;16.60;99.90;;;;;;4992368;28;20472;-75
2022/08/23 04:31:33;;;;;;;5.00;4.47;;;16.60;99.90;;;;;;4992185;28;20495;-75
2022/08/23 04:34:00;;;;;;;5.73;4.87;;;16.50;99.90;;;;;;4991849;28;20468;-75
2022/08/23 04:36:31;;;;;;;6.57;5.00;;;16.50;99.90;;;;;;4992202;28;20478;-75
2022/08/23 04:38:57;;;;;;;6.13;4.43;;;16.50;99.90;;;;;;4992513;28;20450;-75
2022/08/23 04:44:09;;;;;;;6.23;4.63;;;16.50;99.90;;;;;;4991832;28;20564;-75
2022/08/23 04:46:36;;;;;;;5.53;4.67;;;16.40;99.90;;;;;;4992203;28;20495;-75
2022/08/23 04:49:03;;;;;;;5.07;4.57;;;16.40;99.90;;;;;;4992458;28;20464;-75
2022/08/23 04:51:31;;;;;;;5.93;4.60;;;16.40;99.90;;;;;;4992112;28;20477;-75
2022/08/23 04:53:58;;;;;;;6.50;5.20;;;16.30;99.90;;;;;;4991997;28;20466;-75
2022/08/23 04:56:25;;;;;;;10.70;5.40;;;16.30;99.90;;;;;;4991947;28;20976;-75
2022/08/23 04:58:52;;;;;;;5.33;4.83;;;16.30;99.90;;;;;;4992067;28;20459;-75
2022/08/23 05:01:18;;;;;;;8.10;5.00;;;16.30;99.90;;;;;;4993201;28;20840;-76
2022/08/23 05:03:45;;;;;;;5.70;4.70;;;16.30;99.90;;;;;;4995776;28;20974;-76
2022/08/23 05:06:12;;;;;;;6.97;5.40;;;16.30;99.90;;;;;;4995695;28;20517;-76
2022/08/23 05:08:40;;;;;;;9.53;5.40;;;16.20;99.90;;;;;;4995608;28;20955;-76
2022/08/23 05:11:08;;;;;;;7.80;4.90;;;16.20;99.90;;;;;;4995428;28;20932;-76
2022/08/23 05:13:36;;;;;;;6.27;4.60;;;16.20;99.90;;;;;;4995667;28;20456;-76
2022/08/23 05:16:04;;;;;;;7.27;5.77;;;16.20;99.90;;;;;;4995320;28;20971;-76
2022/08/23 05:18:32;;;;;;;6.00;4.90;;;16.20;99.90;;;;;;4995800;28;20459;-76
2022/08/23 05:20:59;;;;;;;5.60;5.03;;;16.30;99.90;;;;;;4995353;28;20991;-76
2022/08/23 05:23:27;;;;;;;8.50;5.30;;;16.30;99.90;;;;;;4995444;28;20459;-76
2022/08/23 05:25:55;;;;;;;6.73;5.10;;;16.30;99.90;;;;;;4994987;28;20483;-76
2022/08/23 05:28:24;;;;;;;6.17;5.27;;;16.30;99.90;;;;;;4995426;28;20936;-76
2022/08/23 05:30:55;;;;;;;5.60;4.87;;;16.20;99.90;;;;;;4995601;28;20475;-76
2022/08/23 05:33:22;;;;;;;7.10;5.03;;;16.20;99.90;;;;;;4995660;28;20463;-76
2022/08/23 05:35:49;;;;;;;5.50;4.50;;;16.20;99.90;;;;;;4995328;28;20940;-76
2022/08/23 05:38:16;;;;;;;6.50;4.80;;;16.20;99.90;;;;;;4995328;28;20466;-77
2022/08/23 05:40:43;;;;;;;5.30;4.80;;;16.30;99.90;;;;;;4995772;28;20530;-76
2022/08/23 05:43:11;;;;;;;6.50;4.70;;;16.30;99.90;;;;;;4996357;28;20550;-76
2022/08/23 05:45:38;;;;;;;6.60;4.93;;;16.30;99.90;;;;;;4995784;28;20494;-76
2022/08/23 05:48:05;;;;;;;7.10;5.20;;;16.40;99.90;;;;;;4996438;28;20866;-76
2022/08/23 05:50:31;;;;;;;6.37;5.47;;;16.40;99.90;;;;;;4995904;28;20456;-76
2022/08/23 05:52:59;;;;;;;5.60;4.60;;;16.40;99.90;;;;;;4995473;28;20459;-77
2022/08/23 05:55:25;;;;;;;4.83;4.40;;;16.40;99.90;;;;;;4994823;28;20468;-76
2022/08/23 05:57:52;;;;;;;6.03;5.17;;;16.40;99.90;;;;;;4994825;28;20912;-76
2022/08/23 06:00:21;;;;;;;9.50;5.10;;;16.40;99.90;;;;;;4994674;28;20546;-76
2022/08/23 06:02:49;;;;;;;5.80;4.80;;;16.50;99.90;;;;;;4994643;28;20444;-76
2022/08/23 06:05:16;;;;;;;5.50;4.47;;;16.50;99.90;;;;;;4994360;28;20947;-76
2022/08/23 06:07:43;;;;;;;4.57;4.13;;;16.50;99.90;;;;;;4994052;28;20502;-76
2022/08/23 06:10:10;;;;;;;7.97;4.93;;;16.50;99.90;;;;;;4995296;28;20553;-78
2022/08/23 06:12:37;;;;;;;5.40;4.00;;;16.60;99.90;;;;;;4993967;28;20476;-76
2022/08/23 06:15:07;;;;;;;6.00;4.30;;;16.50;99.90;;;;;;4994557;28;20550;-76
2022/08/23 06:17:35;;;;;;;6.57;4.33;;;16.60;99.90;;;;;;4994266;28;20457;-76
2022/08/23 06:20:02;;;;;;;6.73;4.70;;;16.60;99.90;;;;;;4994492;28;20543;-76
2022/08/23 06:22:29;;;;;;;5.67;5.00;;;16.60;99.90;;;;;;4994040;28;20975;-76
2022/08/23 06:24:56;;;;;;;5.53;4.93;;;16.70;99.90;;;;;;4994306;28;20463;-77
2022/08/23 06:27:23;;;;;;;5.50;4.50;;;16.70;99.90;;;;;;4994640;28;20490;-76
2022/08/23 06:29:50;;;;;;;11.70;4.93;;;16.70;99.90;;;;;;4994110;28;21042;-76
2022/08/23 06:32:16;;;;;;;13.53;5.47;;;16.80;99.90;;;;;;4994008;28;20486;-77
2022/08/23 06:34:47;;;;;;;7.30;4.80;;;16.80;99.90;;;;;;4994066;28;20456;-76
2022/08/23 06:37:15;;;;;;;5.60;4.90;;;16.80;99.90;;;;;;4994295;28;20428;-76
2022/08/23 06:39:42;;;;;;;4.87;4.37;;;16.90;99.90;;;;;;4994234;28;20452;-76
2022/08/23 06:42:11;;;;;;;4.77;4.33;;;16.90;99.90;;;;;;4993928;28;20476;-76
2022/08/23 06:44:38;;;;;;;6.00;4.80;;;17.00;99.90;;;;;;4993701;28;20460;-76
2022/08/23 06:47:06;;;;;;;7.43;4.57;;;17.00;99.90;;;;;;4993648;28;20498;-76
2022/08/23 06:49:33;;;;;;;7.37;5.07;;;17.00;99.90;;;;;;4993979;28;20466;-77
2022/08/23 06:52:03;;;;;;;5.23;4.20;;;17.10;99.90;;;;;;4993809;28;20480;-76
2022/08/23 06:54:32;;;;;;;5.90;3.87;;;17.10;99.90;;;;;;4993776;28;20858;-76
2022/08/23 06:57:00;;;;;;;7.83;4.00;;;17.20;99.90;;;;;;4993943;28;20455;-76
2022/08/23 06:59:27;;;;;;;4.50;3.67;;;17.20;99.90;;;;;;4993913;28;20464;-76
2022/08/23 07:01:56;;;;;;;5.63;3.70;;;17.30;99.90;;;;;;4992646;28;20484;-76
2022/08/23 07:04:24;;;;;;;12.80;3.83;;;17.30;99.90;;;;;;4993341;28;20463;-76
2022/08/23 07:06:51;;;;;;;4.77;3.30;;;17.40;99.90;;;;;;4993279;28;21027;-76
2022/08/23 07:09:19;;;;;;;6.37;3.53;;;17.50;99.90;;;;;;4993414;28;20935;-76
2022/08/23 07:11:46;;;;;;;4.47;3.93;;;17.60;99.90;;;;;;4993309;28;20475;-76
2022/08/23 07:14:16;;;;;;;7.70;3.90;;;17.60;99.90;;;;;;4992854;28;20964;-77
2022/08/23 07:16:46;;;;;;;4.70;3.30;;;17.70;99.90;;;;;;4993569;28;20454;-76
2022/08/23 07:19:14;;;;;;;4.03;3.03;;;17.80;99.90;;;;;;4993307;28;20463;-76
2022/08/23 07:21:42;;;;;;;4.83;3.03;;;17.90;99.90;;;;;;4993000;28;20486;-76
2022/08/23 07:24:09;;;;;;;5.30;3.97;;;18.00;99.90;;;;;;4993154;28;20929;-76
2022/08/23 07:26:38;;;;;;;5.87;4.10;;;18.10;99.90;;;;;;4993082;28;20499;-79
2022/08/23 07:29:06;;;;;;;4.87;4.37;;;18.20;99.90;;;;;;4993265;28;20895;-76
2022/08/23 07:31:35;;;;;;;7.10;3.80;;;18.30;99.90;;;;;;4992921;28;20866;-76
2022/08/23 07:34:04;;;;;;;6.57;3.97;;;18.40;99.90;;;;;;4992794;28;20460;-76
2022/08/23 07:36:32;;;;;;;5.63;3.37;;;18.50;99.90;;;;;;4992766;28;20452;-76
2022/08/23 07:39:03;;;;;;;9.40;3.60;;;18.50;99.90;;;;;;4992915;28;20455;-76
2022/08/23 07:41:31;;;;;;;3.70;3.00;;;18.60;99.90;;;;;;4992487;28;20915;-76
2022/08/23 07:44:01;;;;;;;5.47;3.47;;;18.70;99.90;;;;;;4992359;28;20460;-77
2022/08/23 07:46:28;;;;;;;4.67;3.03;;;18.90;99.90;;;;;;4993127;28;20494;-76
2022/08/23 07:48:56;;;;;;;3.70;2.90;;;19.00;99.90;;;;;;4992775;28;20526;-77
2022/08/23 07:51:26;;;;;;;3.60;2.90;;;19.10;99.90;;;;;;4992827;28;20479;-76
2022/08/23 07:53:53;;;;;;;4.53;2.97;;;19.20;99.90;;;;;;4992572;28;20459;-76
2022/08/23 07:56:22;;;;;;;7.57;3.80;;;19.30;99.90;;;;;;4992605;28;20484;-77
2022/08/23 07:58:49;;;;;;;5.03;2.60;;;19.50;99.90;;;;;;4992891;28;20498;-76
2022/08/23 08:01:21;;;;;;;3.80;3.00;;;19.60;99.90;;;;;;4991969;28;20891;-76
2022/08/23 08:03:51;;;;;;;3.30;2.87;;;19.70;99.90;;;;;;4992870;28;20444;-76
2022/08/23 08:06:22;;;;;;;3.70;2.80;;;19.80;99.90;;;;;;4992314;28;20456;-76
2022/08/23 08:08:50;;;;;;;5.07;2.83;;;20.00;99.90;;;;;;4992806;28;20444;-76
2022/08/23 08:11:20;;;;;;;5.67;2.87;;;20.10;99.90;;;;;;4992446;28;20480;-77
2022/08/23 08:13:48;;;;;;;4.60;3.07;;;20.30;99.90;;;;;;4992623;28;20463;-77
2022/08/23 08:16:23;;;;;;;4.33;2.87;;;20.40;99.90;;;;;;4992330;28;20464;-77
2022/08/23 08:18:51;;;;;;;5.03;2.63;;;20.60;99.90;;;;;;4992439;28;20444;-77
2022/08/23 08:21:18;;;;;;;4.37;2.70;;;20.80;99.90;;;;;;4992340;28;20501;-77
2022/08/23 08:23:45;;;;;;;4.27;2.90;;;20.80;99.90;;;;;;4992547;28;20462;-77
2022/08/23 08:26:13;;;;;;;4.73;3.00;;;21.00;99.90;;;;;;4992021;28;20461;-77
2022/08/23 08:28:40;;;;;;;8.77;3.30;;;21.20;99.90;;;;;;4992506;28;20836;-77
2022/08/23 08:31:07;;;;;;;4.03;2.83;;;21.40;99.90;;;;;;4992166;28;20856;-77
2022/08/23 08:33:36;;;;;;;4.33;2.70;;;21.50;99.90;;;;;;4992513;28;20464;-77
2022/08/23 08:36:04;;;;;;;4.93;3.00;;;21.60;99.90;;;;;;4993307;28;20461;-77
2022/08/23 08:38:31;;;;;;;4.80;3.33;;;21.70;99.90;;;;;;4996471;28;20458;-77
2022/08/23 08:41:06;;;;;;;4.20;2.50;;;21.80;99.90;;;;;;4996379;28;20560;-77
2022/08/23 08:43:47;;;;;;;4.10;2.50;;;22.00;99.90;;;;;;4996128;28;20825;-77
2022/08/23 08:46:23;;;;;;;5.77;2.70;;;22.20;99.90;;;;;;4996028;28;20456;-77
2022/08/23 08:48:56;;;;;;;2.80;2.30;;;22.30;99.90;;;;;;4996362;28;20435;-77
2022/08/23 08:51:36;;;;;;;3.37;2.40;;;22.40;99.90;;;;;;4996119;28;20483;-77
2022/08/23 08:54:07;;;;;;;6.73;2.80;;;22.50;99.90;;;;;;4995845;28;20459;-78
2022/08/23 08:56:37;;;;;;;4.10;2.30;;;22.70;99.90;;;;;;4996004;28;20462;-77
2022/08/23 08:59:06;;;;;;;2.97;2.50;;;22.80;99.90;;;;;;4996102;28;20444;-77
2022/08/23 09:01:36;;;;;;;3.20;1.83;;;23.00;99.90;;;;;;4995738;28;20487;-77
2022/08/23 09:04:06;;;;;;;5.97;2.80;;;23.20;99.90;;;;;;4996035;28;20451;-77
2022/08/23 09:06:42;;;;;;;3.60;2.37;;;23.30;99.90;;;;;;4996167;28;20542;-76
2022/08/23 09:09:21;;;;;;;4.57;2.43;;;23.50;99.90;;;;;;4995778;28;20821;-77
2022/08/23 09:11:57;;;;;;;5.63;2.17;;;23.50;99.90;;;;;;4995686;28;20483;-77
2022/08/23 09:14:47;;;;;;;3.43;2.50;;;23.70;99.90;;;;;;4995447;28;20546;-76
2022/08/23 09:17:20;;;;;;;3.20;2.40;;;23.80;99.90;;;;;;4995619;28;20440;-77
2022/08/23 09:19:52;;;;;;;5.13;2.00;;;24.00;99.90;;;;;;4995760;28;20436;-77
2022/08/23 09:22:28;;;;;;;4.13;2.40;;;24.20;99.90;;;;;;4995457;28;20479;-77
2022/08/23 09:24:57;;;;;;;3.50;2.10;;;24.30;99.90;;;;;;4995174;28;20541;-77
2022/08/23 09:27:24;;;;;;;3.33;2.23;;;24.50;99.90;;;;;;4995493;28;20490;-77
2022/08/23 09:29:55;;;;;;;8.33;2.43;;;24.70;99.90;;;;;;4995022;28;20465;-77
2022/08/23 09:32:28;;;;;;;6.77;2.43;;;24.80;99.90;;;;;;4995392;28;20502;-75
2022/08/23 09:35:10;;;;;;;3.97;2.37;;;25.00;99.90;;;;;;4995337;28;20511;-77
2022/08/23 09:37:59;;;;;;;5.63;2.30;;;25.20;99.90;;;;;;4995191;28;21021;-78
2022/08/23 09:40:35;;;;;;;3.27;2.10;;;25.50;99.90;;;;;;4995359;28;20432;-77
2022/08/23 09:43:12;;;;;;;3.10;2.23;;;25.60;99.90;;;;;;4995286;28;20462;-78
2022/08/23 09:45:42;;;;;;;4.97;2.43;;;25.80;99.90;;;;;;4994896;28;20451;-78
2022/08/23 09:48:15;;;;;;;3.63;2.27;;;26.00;99.90;;;;;;4993582;28;21033;-78
2022/08/23 09:50:53;;;;;;;2.73;1.83;;;26.10;99.90;;;;;;4994618;28;21006;-77
2022/08/23 09:53:26;;;;;;;3.73;2.10;;;26.30;99.90;;;;;;4995040;28;20470;-78
2022/08/23 09:55:57;;;;;;;4.40;1.97;;;26.70;99.90;;;;;;4994943;28;20447;-78
2022/08/23 09:58:30;;;;;;;4.37;2.43;;;27.00;99.90;;;;;;4995101;28;20829;-78
2022/08/23 10:01:11;;;;;;;2.50;1.93;;;27.10;99.90;;;;;;4994490;28;20492;-77
2022/08/23 10:03:39;;;;;;;3.90;2.30;;;27.20;99.90;;;;;;4994946;28;20471;-77
2022/08/23 10:06:08;;;;;;;2.83;2.43;;;27.30;99.90;;;;;;4994354;28;20944;-77
2022/08/23 10:08:37;;;;;;;4.17;2.40;;;27.40;99.90;;;;;;4994458;28;20487;-77
2022/08/23 10:11:19;;;;;;;3.53;1.73;;;27.50;99.90;;;;;;4994422;28;20980;-78
2022/08/23 10:13:46;;;;;;;3.97;2.17;;;27.90;99.90;;;;;;4994872;28;20519;-78
2022/08/23 10:16:24;;;;;;;2.93;2.27;;;28.40;99.90;;;;;;5017876;23;20506;-74
2022/08/23 10:19:00;;;;;;;3.93;2.53;;;28.50;99.90;;;;;;4994741;28;20438;-74
2022/08/23 10:21:37;;;;;;;4.90;2.13;;;28.30;99.90;;;;;;4994618;28;20454;-75
2022/08/23 10:24:23;;;;;;;5.10;2.50;;;28.30;99.90;;;;;;4993928;28;20950;-74
2022/08/23 10:29:56;;;;;;;6.00;2.50;;;28.40;99.90;;;;;;4993777;28;20573;-75
2022/08/23 10:32:34;;;;;;;2.70;2.00;;;28.40;99.90;;;;;;4994041;28;20440;-74
2022/08/23 10:35:18;;;;;;;3.57;1.90;;;28.50;99.90;;;;;;4993914;28;20836;-75
2022/08/23 10:38:13;;;;;;;4.13;2.17;;;29.40;99.90;;;;;;4994076;28;20780;-75
2022/08/23 10:40:46;;;;;;;4.33;2.10;;;29.60;99.10;;;;;;4983729;28;20470;-75
2022/08/23 10:43:21;;;;;;;4.60;2.07;;;30.20;96.90;;;;;;4994129;28;20459;-75
2022/08/23 10:45:49;;;;;;;2.60;1.70;;;30.10;95.90;;;;;;4993774;28;20471;-75
2022/08/23 10:48:28;;;;;;;5.03;2.10;;;30.10;96.70;;;;;;4993877;28;20580;-75
2022/08/23 10:50:59;;;;;;;6.27;2.50;;;30.60;96.80;;;;;;4993610;28;20460;-75
2022/08/23 10:53:37;;;;;;;4.67;2.30;;;30.50;96.30;;;;;;4993830;28;20462;-75
2022/08/23 10:56:06;;;;;;;3.70;2.03;;;30.90;94.00;;;;;;4993575;28;20479;-75
2022/08/23 10:58:40;;;;;;;2.03;1.83;;;31.50;93.50;;;;;;4993364;28;20460;-75
2022/08/23 11:01:09;;;;;;;3.90;2.10;;;32.20;92.00;;;;;;4993460;28;20464;-75
2022/08/23 11:03:42;;;;;;;6.90;2.20;;;32.80;90.90;;;;;;4993369;28;20480;-75
2022/08/23 11:06:50;;;;;;;5.07;2.00;;;32.60;90.50;;;;;;4993279;28;20918;-75
2022/08/23 11:09:47;;;;;;;3.73;2.03;;;32.60;91.30;;;;;;4993444;28;20951;-75
2022/08/23 11:12:21;;;;;;;3.40;2.10;;;32.00;89.60;;;;;;4993424;28;20491;-75
2022/08/23 11:15:02;;;;;;;5.33;2.10;;;31.60;92.00;;;;;;4993097;28;20464;-75
2022/08/23 11:17:34;;;;;;;3.90;2.47;;;31.50;92.00;;;;;;4993270;28;20466;-75
2022/08/23 11:20:06;;;;;;;3.10;2.00;;;32.40;89.60;;;;;;4993170;28;20455;-75
2022/08/23 11:22:53;;;;;;;4.33;2.53;;;33.00;87.90;;;;;;4993288;28;20802;-75
2022/08/23 11:25:41;;;;;;;3.60;2.17;;;33.20;86.50;;;;;;4992793;28;20490;-75
2022/08/23 11:28:37;;;;;;;2.20;1.90;;;32.90;84.50;;;;;;4993078;28;20500;-75
2022/08/23 11:31:21;;;;;;;4.13;2.60;;;33.10;84.90;;;;;;4993399;28;20448;-75
2022/08/23 11:33:50;;;;;;;4.50;2.10;;;33.60;84.80;;;;;;4993341;28;20519;-75
2022/08/23 11:36:20;;;;;;;2.60;2.13;;;33.10;82.60;;;;;;4992632;28;20490;-75
2022/08/23 11:39:11;;;;;;;2.30;2.10;;;32.60;82.90;;;;;;4993092;28;20579;-75
2022/08/23 11:42:02;;;;;;;2.33;2.13;;;32.20;84.00;;;;;;4993470;28;20444;-75
2022/08/23 11:44:36;;;;;;;2.77;2.27;;;32.30;86.60;;;;;;4994386;28;20506;-75
2022/08/23 11:47:07;;;;;;;7.27;2.03;;;32.80;83.20;;;;;;4994581;28;20435;-75
2022/08/23 11:49:52;;;;;;;4.73;2.50;;;33.00;84.70;;;;;;4993623;28;20502;-73
2022/08/23 11:52:52;;;;;;;3.70;2.20;;;33.60;83.80;;;;;;4992962;28;20495;-73
2022/08/23 11:55:32;;;;;;;3.70;2.40;;;33.60;82.00;;;;;;4989159;28;20490;-73
2022/08/23 11:58:21;;;;;;;3.60;2.13;;;34.00;80.50;;;;;;4992899;28;20804;-72
2022/08/23 12:01:05;;;;;;;3.20;1.80;;;34.10;80.60;;;;;;4992444;28;20825;-73
2022/08/23 12:03:35;;;;;;;4.07;2.10;;;33.90;80.50;;;;;;4992494;28;20916;-72
2022/08/23 12:06:37;;;;;;;3.50;2.27;;;33.80;78.40;;;;;;4991988;28;20482;-73
2022/08/23 12:09:10;;;;;;;3.10;2.27;;;33.60;79.40;;;;;;4992463;28;20549;-73
2022/08/23 12:12:10;;;;;;;4.40;2.30;;;33.70;80.30;;;;;;4991896;28;20468;-73
2022/08/23 12:14:53;;;;;;;5.20;2.50;;;33.80;79.10;;;;;;4992325;28;20462;-73
2022/08/23 12:17:57;;;;;;;5.60;2.50;;;33.70;79.90;;;;;;4992491;28;20424;-72
2022/08/23 12:20:31;;;;;;;3.97;2.20;;;33.80;78.00;;;;;;4992568;28;20555;-73
2022/08/23 12:23:06;;;;;;;6.00;2.40;;;33.60;77.30;;;;;;4992680;28;20462;-73
2022/08/23 12:25:35;;;;;;;3.33;2.20;;;34.10;75.90;;;;;;4992165;28;20554;-72
2022/08/23 12:28:10;;;;;;;4.80;2.03;;;33.80;76.00;;;;;;4992326;28;20483;-73
2022/08/23 12:30:50;;;;;;;3.07;2.07;;;33.40;76.60;;;;;;4992467;28;20459;-72
2022/08/23 12:33:28;;;;;;;4.60;2.40;;;33.20;77.50;;;;;;4992596;28;20444;-72
2022/08/23 12:36:06;;;;;;;4.87;2.10;;;34.10;73.30;;;;;;4992450;28;20501;-72
2022/08/23 12:38:45;;;;;;;4.40;2.50;;;34.80;73.90;;;;;;4994591;28;20490;-72
2022/08/23 12:41:18;;;;;;;2.80;2.30;;;34.70;74.20;;;;;;4994406;28;20466;-72
2022/08/23 12:43:56;;;;;;;2.50;2.00;;;34.60;72.60;;;;;;4994171;28;20535;-72
2022/08/23 12:46:36;;;;;;;4.00;2.13;;;34.60;73.20;;;;;;4992178;28;20494;-72
2022/08/23 12:49:05;;;;;;;2.90;2.00;;;34.30;73.70;;;;;;4992189;28;21010;-72
2022/08/23 12:51:32;;;;;;;2.50;2.30;;;34.30;75.30;;;;;;4992936;28;20579;-72
2022/08/23 12:54:13;;;;;;;4.90;2.50;;;34.00;75.30;;;;;;4991931;28;20460;-72
2022/08/23 12:56:44;;;;;;;4.27;1.77;;;33.90;74.30;;;;;;4992509;28;20478;-72
2022/08/23 12:59:34;;;;;;;4.00;2.50;;;33.80;77.30;;;;;;4992623;28;20466;-72
2022/08/23 13:02:04;;;;;;;3.60;2.40;;;33.70;78.30;;;;;;4992254;28;20469;-72
2022/08/23 13:04:32;;;;;;;3.60;2.17;;;33.60;77.20;;;;;;4991715;28;20450;-72
2022/08/23 13:07:03;;;;;;;4.80;2.10;;;33.40;75.10;;;;;;4991888;28;21005;-75
2022/08/23 13:09:33;;;;;;;3.80;1.90;;;33.30;77.10;;;;;;4991880;28;21036;-75
2022/08/23 13:12:01;;;;;;;6.27;3.10;;;33.10;74.20;;;;;;4991829;28;20970;-75
2022/08/23 13:14:36;;;;;;;4.50;3.20;;;33.00;75.70;;;;;;4991752;28;20828;-75
2022/08/23 13:17:19;;;;;;;3.27;2.10;;;32.90;75.60;;;;;;4991997;28;20557;-75
2022/08/23 13:19:48;;;;;;;2.67;2.43;;;32.70;76.60;;;;;;4992214;28;20439;-75
2022/08/23 13:22:22;;;;;;;2.63;2.40;;;32.60;75.00;;;;;;4993390;28;20542;-75
2022/08/23 13:25:02;;;;;;;8.70;2.70;;;32.40;75.90;;;;;;4995209;28;20971;-75
2022/08/23 13:27:31;;;;;;;3.67;2.13;;;32.30;77.70;;;;;;4995146;28;20447;-75
2022/08/23 13:30:00;;;;;;;4.77;2.20;;;32.20;78.00;;;;;;4995582;28;20497;-72
2022/08/23 13:32:35;;;;;;;6.00;1.97;;;32.30;76.30;;;;;;4996895;28;20459;-72
2022/08/23 13:35:31;;;;;;;3.77;2.30;;;32.60;74.90;;;;;;4997628;28;20836;-73
2022/08/23 13:38:02;;;;;;;5.33;2.40;;;32.90;73.50;;;;;;4984500;28;20883;-72
2022/08/23 13:40:32;;;;;;;3.17;2.33;;;32.90;73.90;;;;;;4996950;28;20459;-72
2022/08/23 13:43:02;;;;;;;3.73;2.47;;;32.70;75.20;;;;;;4995425;28;20802;-72
2022/08/23 13:45:31;;;;;;;5.37;2.27;;;32.60;73.90;;;;;;4994792;28;20482;-72
2022/08/23 13:48:07;;;;;;;3.27;2.13;;;32.60;74.70;;;;;;4994908;28;20518;-75
2022/08/23 13:50:36;;;;;;;3.03;2.00;;;32.50;75.10;;;;;;4995141;28;20455;-75
2022/08/23 13:53:03;;;;;;;2.70;2.13;;;32.50;74.30;;;;;;4995036;28;20558;-75
2022/08/23 13:55:31;;;;;;;7.60;2.30;;;32.50;75.30;;;;;;4994564;28;20476;-75
2022/08/23 13:57:58;;;;;;;3.83;2.07;;;32.50;72.80;;;;;;4994864;28;20459;-75
2022/08/23 14:00:26;;;;;;;4.97;2.60;;;32.40;74.40;;;;;;4994534;28;20456;-75
2022/08/23 14:02:53;;;;;;;3.67;2.10;;;32.30;75.40;;;;;;4995024;28;20459;-75
2022/08/23 14:05:23;;;;;;;4.20;2.93;;;32.30;74.00;;;;;;4994243;28;20502;-75
2022/08/23 14:07:51;;;;;;;4.03;2.03;;;32.30;75.70;;;;;;4994555;28;20470;-75
2022/08/23 14:10:20;;;;;;;5.43;3.50;;;32.20;74.10;;;;;;4994719;28;20526;-75
2022/08/23 14:12:48;;;;;;;5.20;2.30;;;32.30;76.40;;;;;;4994594;28;20455;-75
2022/08/23 14:15:16;;;;;;;4.73;2.50;;;32.20;75.20;;;;;;4993933;28;20491;-75
2022/08/23 14:17:46;;;;;;;3.30;2.13;;;32.10;74.00;;;;;;4994399;28;20478;-75
2022/08/23 14:20:13;;;;;;;4.00;2.27;;;32.10;74.70;;;;;;4994572;28;20452;-75
2022/08/23 14:22:42;;;;;;;4.20;2.20;;;32.10;77.60;;;;;;4994327;28;20452;-75
2022/08/23 14:25:11;;;;;;;3.00;2.10;;;32.10;75.70;;;;;;4993715;28;20484;-75
2022/08/23 14:27:38;;;;;;;3.40;2.00;;;32.20;77.00;;;;;;4993776;28;20467;-75
2022/08/23 14:30:07;;;;;;;3.57;2.23;;;32.20;74.60;;;;;;4994184;28;20487;-75
2022/08/23 14:32:36;;;;;;;2.70;1.80;;;32.20;76.70;;;;;;4994376;28;20798;-72
2022/08/23 14:35:04;;;;;;;2.77;2.20;;;32.20;74.60;;;;;;4993372;28;20854;-72
2022/08/23 14:37:30;;;;;;;4.93;2.27;;;32.20;75.80;;;;;;4993847;28;20538;-72
2022/08/23 14:39:59;;;;;;;6.30;1.80;;;32.10;72.90;;;;;;4994236;28;20458;-72
2022/08/23 14:42:26;;;;;;;3.73;2.03;;;32.10;74.20;;;;;;4993747;28;20460;-72
2022/08/23 14:44:54;;;;;;;5.03;2.53;;;32.20;75.50;;;;;;4993823;28;20466;-72
2022/08/23 14:47:20;;;;;;;2.63;2.13;;;32.30;77.10;;;;;;4994142;28;20470;-72
2022/08/23 14:49:47;;;;;;;4.53;2.23;;;32.30;75.60;;;;;;4993781;28;20586;-72
2022/08/23 14:52:15;;;;;;;3.93;2.50;;;32.30;74.30;;;;;;4993734;28;20811;-72
2022/08/23 14:54:42;;;;;;;4.53;2.03;;;32.40;75.40;;;;;;4993276;28;20455;-74
2022/08/23 14:57:10;;;;;;;4.33;2.70;;;32.40;74.00;;;;;;4993779;28;20471;-72
2022/08/23 14:59:37;;;;;;;3.47;2.20;;;32.40;74.40;;;;;;4993930;28;20475;-72
2022/08/23 15:02:06;;;;;;;5.53;2.47;;;32.30;74.70;;;;;;4993672;28;20475;-72
2022/08/23 15:04:33;;;;;;;4.17;2.07;;;32.10;74.70;;;;;;4993308;28;20462;-72
2022/08/23 15:07:00;;;;;;;6.70;2.10;;;32.00;76.30;;;;;;4993465;28;20459;-72
2022/08/23 15:09:27;;;;;;;2.60;1.90;;;31.90;75.40;;;;;;4993106;28;20499;-72
2022/08/23 15:11:54;;;;;;;3.80;2.37;;;31.90;76.10;;;;;;4993769;28;20464;-75
2022/08/23 15:14:22;;;;;;;4.23;2.20;;;31.90;75.00;;;;;;4993182;28;20947;-75
2022/08/23 15:16:49;;;;;;;3.50;2.30;;;31.90;74.50;;;;;;4993130;28;20491;-74
2022/08/23 15:19:16;;;;;;;6.50;2.33;;;31.70;75.10;;;;;;4993262;28;20944;-75
2022/08/23 15:21:42;;;;;;;4.17;2.30;;;31.60;77.50;;;;;;4993305;28;20455;-75
2022/08/23 15:24:09;;;;;;;2.37;1.93;;;31.50;76.80;;;;;;4992861;28;20840;-72
2022/08/23 15:26:36;;;;;;;5.37;2.53;;;31.40;77.10;;;;;;4992941;28;21003;-72
2022/08/23 15:29:04;;;;;;;4.77;2.47;;;31.40;76.50;;;;;;4993016;28;20494;-75
2022/08/23 15:31:33;;;;;;;9.33;2.37;;;31.30;76.70;;;;;;4993510;28;20455;-74
2022/08/23 15:34:00;;;;;;;5.40;2.47;;;31.20;75.20;;;;;;4992865;28;20475;-74
2022/08/23 15:36:27;;;;;;;3.37;2.20;;;31.10;80.00;;;;;;4992631;28;20523;-74
2022/08/23 15:38:54;;;;;;;2.53;1.90;;;30.90;77.50;;;;;;4993051;28;20861;-75
2022/08/23 15:41:21;;;;;;;4.20;2.03;;;30.80;78.90;;;;;;4993220;28;20459;-75
2022/08/23 15:43:48;;;;;;;4.67;2.23;;;30.80;77.30;;;;;;4992863;28;20455;-74
2022/08/23 15:46:20;;;;;;;4.07;2.40;;;30.70;76.90;;;;;;4991601;28;20992;-75
2022/08/23 15:48:53;;;;;;;3.53;2.30;;;30.60;79.90;;;;;;4992621;28;20495;-75
2022/08/23 15:51:20;;;;;;;5.30;2.60;;;30.60;80.10;;;;;;4992610;28;20455;-74
2022/08/23 15:53:47;;;;;;;6.00;2.27;;;30.60;79.40;;;;;;4992642;28;20462;-75
2022/08/23 15:56:17;;;;;;;4.17;2.07;;;30.60;78.40;;;;;;4992672;28;20475;-75
2022/08/23 15:58:44;;;;;;;5.27;2.40;;;30.60;80.40;;;;;;4992983;28;20531;-75
2022/08/23 16:01:12;;;;;;;3.23;2.03;;;30.50;79.60;;;;;;4992370;28;20918;-75
2022/08/23 16:03:42;;;;;;;3.73;2.00;;;30.60;78.10;;;;;;4992718;28;20467;-75
2022/08/23 16:06:12;;;;;;;4.03;2.27;;;30.60;77.80;;;;;;4992228;28;20984;-75
2022/08/23 16:08:41;;;;;;;5.40;3.20;;;30.60;78.00;;;;;;4992527;28;20468;-75
2022/08/23 16:11:11;;;;;;;4.47;3.20;;;30.60;82.10;;;;;;4992590;28;20460;-75
2022/08/23 16:13:41;;;;;;;3.23;2.10;;;30.50;81.10;;;;;;4992939;28;20467;-75
2022/08/23 16:16:15;;;;;;;4.40;2.43;;;30.50;78.30;;;;;;5017508;23;20495;-79
2022/08/23 16:18:42;;;;;;;5.50;2.63;;;30.30;83.40;;;;;;4997669;28;20444;-79
2022/08/23 16:21:10;;;;;;;3.50;1.87;;;30.30;82.00;;;;;;4997671;28;20519;-78
2022/08/23 16:23:38;;;;;;;3.60;2.30;;;30.30;82.00;;;;;;4997634;28;20839;-79
2022/08/23 16:26:07;;;;;;;6.20;2.73;;;30.30;81.60;;;;;;4997257;28;20471;-80
2022/08/23 16:28:34;;;;;;;4.43;2.40;;;30.30;79.70;;;;;;4997390;28;20466;-79
2022/08/23 16:31:01;;;;;;;3.83;2.87;;;30.40;81.30;;;;;;4997912;28;20867;-78
2022/08/23 16:33:27;;;;;;;5.90;2.60;;;30.40;81.10;;;;;;4998419;28;20463;-79
2022/08/23 16:35:54;;;;;;;4.23;2.37;;;30.50;79.70;;;;;;4997753;28;20566;-79
2022/08/23 16:38:22;;;;;;;4.13;2.77;;;30.50;78.70;;;;;;4997927;28;20465;-79
2022/08/23 16:40:49;;;;;;;5.30;2.60;;;30.60;79.00;;;;;;4997292;28;20982;-79
2022/08/23 16:43:16;;;;;;;2.30;2.00;;;30.60;80.20;;;;;;4997347;28;20569;-79
2022/08/23 16:45:43;;;;;;;4.67;2.17;;;30.60;77.00;;;;;;4996892;28;20518;-79
2022/08/23 16:48:10;;;;;;;3.40;2.83;;;30.60;79.80;;;;;;4997407;28;20475;-80
2022/08/23 16:50:37;;;;;;;4.60;2.70;;;30.50;78.50;;;;;;4997963;28;20797;-79
2022/08/23 16:53:04;;;;;;;5.50;2.47;;;30.50;77.80;;;;;;4998084;28;20451;-78
2022/08/23 16:55:32;;;;;;;6.90;2.33;;;30.40;77.90;;;;;;4997160;28;20482;-79
2022/08/23 16:57:59;;;;;;;4.57;2.47;;;30.30;78.60;;;;;;5000453;28;20456;-78
2022/08/23 17:00:26;;;;;;;5.70;2.20;;;30.30;79.20;;;;;;5000516;28;20470;-78
2022/08/23 17:02:53;;;;;;;2.10;1.90;;;30.30;85.60;;;;;;5000829;28;20599;-78
2022/08/23 17:05:20;;;;;;;4.50;2.30;;;30.20;82.50;;;;;;5000619;28;20489;-78
2022/08/23 17:07:48;;;;;;;5.90;2.47;;;30.10;79.60;;;;;;5000783;28;20455;-79
2022/08/23 17:10:17;;;;;;;5.60;2.73;;;29.90;80.20;;;;;;5000908;28;21080;-79
2022/08/23 17:12:48;;;;;;;7.23;2.80;;;29.80;79.30;;;;;;5000936;28;20823;-79